RYR2YC EDJA-LDZA
Flight info
| Callsign | RYR2YC |
|---|---|
| Flight time | N/A |
| Altitude | 31000 |
| Route | EDJA/24 KPT Z999 BEMKI L607 XEBIX Z2 TUNUM Z204 GEDSO DCT KLAGY DCT LULUD |
| Aircraft | B38M/M-SADE3FGILRWY/SB1 |
Departure
| Time | N/A |
|---|---|
| Airport | Memmingen Allgau Airport (EDJA) |
Arrival
| Time | 2026-05-03 20:19 |
|---|---|
| Airport | Zagreb Franjo Tuđman International Airport (LDZA) |
| Time | Latitude | Longitude | Altitude | Speed | Heading |
|---|---|---|---|---|---|
| 2026-05-03 20:15 | 45.64605 | 15.92167 | 2762 ft | 151 kts | 50° |
| 2026-05-03 20:15 | 45.65314 | 15.93244 | 2564 ft | 148 kts | 50° |
| 2026-05-03 20:15 | 45.66017 | 15.94310 | 2370 ft | 147 kts | 50° |
| 2026-05-03 20:15 | 45.66717 | 15.95372 | 2187 ft | 147 kts | 51° |
| 2026-05-03 20:16 | 45.67414 | 15.96432 | 1992 ft | 146 kts | 52° |
| 2026-05-03 20:16 | 45.68109 | 15.97484 | 1803 ft | 145 kts | 51° |
| 2026-05-03 20:16 | 45.68799 | 15.98533 | 1613 ft | 144 kts | 51° |
| 2026-05-03 20:16 | 45.69486 | 15.99578 | 1414 ft | 144 kts | 51° |
| 2026-05-03 20:17 | 45.70165 | 16.00612 | 1233 ft | 142 kts | 49° |
| 2026-05-03 20:17 | 45.70837 | 16.01631 | 1069 ft | 140 kts | 48° |
| 2026-05-03 20:17 | 45.71501 | 16.02640 | 880 ft | 139 kts | 48° |
| 2026-05-03 20:17 | 45.72156 | 16.03637 | 685 ft | 137 kts | 48° |
| 2026-05-03 20:18 | 45.72811 | 16.04621 | 507 ft | 137 kts | 47° |
| 2026-05-03 20:18 | 45.73455 | 16.05591 | 365 ft | 128 kts | 48° |
| 2026-05-03 20:18 | 45.73993 | 16.06418 | 366 ft | 97 kts | 47° |
| 2026-05-03 20:18 | 45.74350 | 16.06964 | 361 ft | 54 kts | 47° |
| 2026-05-03 20:19 | 45.74572 | 16.07302 | 362 ft | 37 kts | 46° |
| 2026-05-03 20:19 | 45.74677 | 16.07495 | 366 ft | 14 kts | 97° |
| 2026-05-03 20:19 | 45.74614 | 16.07596 | 361 ft | 14 kts | 136° |
| 2026-05-03 20:19 | 45.74539 | 16.07699 | 366 ft | 16 kts | 136° |
| 2026-05-03 20:20 | 45.74457 | 16.07812 | 365 ft | 14 kts | 137° |
| 2026-05-03 20:20 | 45.74405 | 16.07881 | 368 ft | 10 kts | 137° |
| 2026-05-03 20:20 | 45.74341 | 16.07893 | 362 ft | 8 kts | 222° |
| 2026-05-03 20:20 | 45.74299 | 16.07837 | 364 ft | 7 kts | 223° |
| 2026-05-03 20:21 | 45.74266 | 16.07802 | 364 ft | 2 kts | 177° |
| 2026-05-03 20:21 | 45.74250 | 16.07819 | 365 ft | 8 kts | 144° |
| 2026-05-03 20:21 | 45.74223 | 16.07853 | 363 ft | 0 kts | 136° |
| 2026-05-03 20:21 | 45.74220 | 16.07858 | 362 ft | 2 kts | 136° |
| 2026-05-03 20:22 | 45.74217 | 16.07862 | 362 ft | 1 kts | 137° |
| 2026-05-03 20:22 | 45.74212 | 16.07868 | 361 ft | 1 kts | 137° |
| 2026-05-03 20:22 | 45.74211 | 16.07870 | 361 ft | 0 kts | 137° |